createdAt,value
2023-07-07T00:00:34.607Z,3.50
2023-07-07T00:01:34.585Z,3.30
2023-07-07T00:02:34.629Z,3.50
2023-07-07T00:03:34.520Z,3.80
2023-07-07T00:04:34.592Z,3.40
2023-07-07T00:05:34.521Z,3.20
2023-07-07T00:06:34.542Z,3.20
2023-07-07T00:07:34.487Z,3.70
2023-07-07T00:08:34.509Z,3.20
2023-07-07T00:09:34.440Z,3.10
2023-07-07T00:10:34.452Z,3.20
2023-07-07T00:11:34.475Z,3.50
2023-07-07T00:12:34.488Z,3.80
2023-07-07T00:13:34.438Z,3.30
2023-07-07T00:14:34.413Z,3.50
2023-07-07T00:15:34.367Z,3.70
2023-07-07T00:16:34.493Z,3.80
2023-07-07T00:17:34.436Z,3.50
2023-07-07T00:18:34.344Z,3.90
2023-07-07T00:19:34.465Z,3.60
2023-07-07T00:20:34.315Z,3.70
2023-07-07T00:21:34.279Z,3.40
2023-07-07T00:22:34.373Z,4.00
2023-07-07T00:23:34.255Z,3.80
2023-07-07T00:24:34.273Z,4.00
2023-07-07T00:25:34.228Z,3.70
2023-07-07T00:26:34.244Z,3.70
2023-07-07T00:27:34.202Z,4.20
2023-07-07T00:28:34.256Z,4.30
2023-07-07T00:29:34.187Z,3.80
2023-07-07T00:30:34.202Z,3.80
2023-07-07T00:31:34.156Z,4.00
2023-07-07T00:32:34.244Z,3.90
2023-07-07T00:33:34.152Z,3.60
2023-07-07T00:34:34.172Z,4.00
2023-07-07T00:35:34.120Z,4.10
2023-07-07T00:36:34.113Z,3.80
2023-07-07T00:37:34.145Z,4.00
2023-07-07T00:38:34.145Z,3.60
2023-07-07T00:39:34.045Z,3.80
2023-07-07T00:40:34.200Z,4.10
2023-07-07T00:41:34.034Z,4.30
2023-07-07T00:42:34.043Z,3.90
2023-07-07T00:43:34.000Z,3.70
2023-07-07T00:44:34.011Z,3.40
2023-07-07T00:45:33.985Z,3.50
2023-07-07T00:46:34.074Z,3.30
2023-07-07T00:47:33.984Z,3.70
2023-07-07T00:48:33.982Z,3.40
2023-07-07T00:49:33.923Z,3.50
2023-07-07T00:50:33.952Z,3.80
2023-07-07T00:51:33.900Z,3.60
2023-07-07T00:52:33.937Z,3.90
2023-07-07T00:53:33.889Z,4.30
2023-07-07T00:54:34.001Z,3.70
2023-07-07T00:55:33.853Z,3.90
2023-07-07T00:56:33.853Z,4.00
2023-07-07T00:57:33.825Z,3.60
2023-07-07T00:58:33.902Z,3.80
2023-07-07T00:59:33.803Z,3.80
2023-07-07T01:00:33.977Z,4.40
2023-07-07T01:01:33.819Z,3.40
2023-07-07T01:02:33.894Z,3.60
2023-07-07T01:03:33.764Z,3.70
2023-07-07T01:04:33.927Z,3.10
2023-07-07T01:05:33.748Z,3.50
2023-07-07T01:06:33.734Z,3.20
2023-07-07T01:07:33.704Z,3.20
2023-07-07T01:08:33.710Z,3.50
2023-07-07T01:09:33.684Z,3.30
2023-07-07T01:10:33.686Z,3.40
2023-07-07T01:11:33.648Z,3.00
2023-07-07T01:12:33.670Z,3.40
2023-07-07T01:13:33.669Z,3.60
2023-07-07T01:14:33.667Z,3.90
2023-07-07T01:15:33.587Z,3.50
2023-07-07T01:16:33.667Z,3.80
2023-07-07T01:17:33.591Z,3.50
2023-07-07T01:18:33.561Z,3.70
2023-07-07T01:19:33.528Z,3.80
2023-07-07T01:20:33.560Z,4.10
2023-07-07T01:21:33.525Z,3.60
2023-07-07T01:22:33.532Z,3.70
2023-07-07T01:23:33.496Z,3.50
2023-07-07T01:24:33.525Z,3.80
2023-07-07T01:25:33.451Z,3.70
2023-07-07T01:26:33.473Z,3.50
2023-07-07T01:27:33.438Z,3.90
2023-07-07T01:28:33.456Z,3.90
2023-07-07T01:29:33.395Z,3.80
2023-07-07T01:30:33.448Z,3.90
2023-07-07T01:31:33.431Z,3.70
2023-07-07T01:32:33.461Z,3.40
2023-07-07T01:33:33.346Z,3.60
2023-07-07T01:34:33.395Z,3.50
2023-07-07T01:35:33.332Z,3.60
2023-07-07T01:36:33.344Z,3.60
2023-07-07T01:37:33.293Z,3.90
2023-07-07T01:38:33.307Z,3.70
2023-07-07T01:39:33.266Z,3.40
2023-07-07T01:40:33.306Z,3.50
2023-07-07T01:41:33.245Z,3.20
2023-07-07T01:42:33.237Z,3.30
2023-07-07T01:43:33.204Z,3.60
2023-07-07T01:44:33.210Z,3.30
2023-07-07T01:45:33.196Z,3.80
2023-07-07T01:46:33.301Z,3.20
2023-07-07T01:47:33.223Z,3.60
2023-07-07T01:48:33.170Z,3.50
2023-07-07T01:49:33.148Z,3.40
2023-07-07T01:50:33.127Z,3.50
2023-07-07T01:51:33.100Z,3.70
2023-07-07T01:52:33.167Z,3.90
2023-07-07T01:53:33.076Z,3.50
2023-07-07T01:54:33.082Z,3.50
2023-07-07T01:55:33.057Z,3.70
2023-07-07T01:56:33.054Z,3.20
2023-07-07T01:57:33.002Z,3.20
2023-07-07T01:58:33.050Z,3.50
2023-07-07T01:59:32.988Z,3.10
2023-07-07T02:00:33.004Z,3.20
2023-07-07T02:01:33.000Z,3.10
2023-07-07T02:02:33.030Z,3.10
2023-07-07T02:03:32.930Z,2.90
2023-07-07T02:04:33.090Z,3.00
2023-07-07T02:05:32.912Z,3.40
2023-07-07T02:06:32.925Z,3.20
2023-07-07T02:07:32.882Z,3.10
2023-07-07T02:08:32.885Z,3.20
2023-07-07T02:09:32.855Z,3.10
2023-07-07T02:10:32.895Z,3.20
2023-07-07T02:11:32.821Z,3.00
2023-07-07T02:12:32.866Z,3.20
2023-07-07T02:13:32.829Z,3.40
2023-07-07T02:14:32.829Z,3.20
2023-07-07T02:15:32.772Z,3.50
2023-07-07T02:16:32.792Z,3.30
2023-07-07T02:17:32.808Z,3.20
2023-07-07T02:18:32.818Z,3.20
2023-07-07T02:19:32.707Z,3.20
2023-07-07T02:20:32.787Z,3.40
2023-07-07T02:21:32.678Z,3.20
2023-07-07T02:22:32.715Z,2.80
2023-07-07T02:23:32.675Z,3.30
2023-07-07T02:24:32.728Z,3.40
2023-07-07T02:25:32.638Z,3.30
2023-07-07T02:26:32.641Z,3.20
2023-07-07T02:27:32.606Z,3.40
2023-07-07T02:28:32.634Z,3.70
2023-07-07T02:29:32.597Z,3.50
2023-07-07T02:30:32.617Z,3.20
2023-07-07T02:31:32.624Z,3.40
2023-07-07T02:32:32.596Z,3.10
2023-07-07T02:33:32.551Z,3.10
2023-07-07T02:34:32.565Z,3.50
2023-07-07T02:35:32.510Z,3.30
2023-07-07T02:36:32.550Z,3.00
2023-07-07T02:37:32.533Z,3.30
2023-07-07T02:38:32.484Z,3.20
2023-07-07T02:39:32.451Z,3.50
2023-07-07T02:40:32.459Z,3.60
2023-07-07T02:41:32.440Z,3.50
2023-07-07T02:42:32.441Z,3.60
2023-07-07T02:43:32.426Z,3.40
2023-07-07T02:44:32.385Z,3.30
2023-07-07T02:45:32.378Z,3.60
2023-07-07T02:46:32.365Z,3.60
2023-07-07T02:47:32.373Z,3.20
2023-07-07T02:48:32.362Z,3.50
2023-07-07T02:49:32.333Z,3.60
2023-07-07T02:50:32.298Z,3.10
2023-07-07T02:51:32.320Z,3.40
2023-07-07T02:52:32.318Z,3.40
2023-07-07T02:53:32.280Z,3.50
2023-07-07T02:54:32.302Z,3.50
2023-07-07T02:55:32.325Z,3.20
2023-07-07T02:56:32.222Z,3.40
2023-07-07T02:57:32.244Z,3.60
2023-07-07T02:58:32.200Z,3.80
2023-07-07T02:59:32.195Z,3.30
2023-07-07T03:00:32.192Z,3.50
2023-07-07T03:01:32.225Z,3.60
2023-07-07T03:02:32.258Z,3.70
2023-07-07T03:03:32.184Z,3.30
2023-07-07T03:04:32.112Z,3.20
2023-07-07T03:05:32.134Z,3.30
2023-07-07T03:06:32.150Z,3.10
2023-07-07T03:07:32.095Z,3.20
2023-07-07T03:08:32.065Z,3.20
2023-07-07T03:09:32.058Z,3.70
2023-07-07T03:10:32.022Z,3.30
2023-07-07T03:11:32.031Z,3.40
2023-07-07T03:12:32.011Z,3.10
2023-07-07T03:13:32.089Z,3.10
2023-07-07T03:14:31.996Z,3.40
2023-07-07T03:15:31.975Z,3.20
2023-07-07T03:16:32.219Z,3.50
2023-07-07T03:17:32.010Z,3.20
2023-07-07T03:18:31.954Z,3.50
2023-07-07T03:19:31.922Z,3.30
2023-07-07T03:20:31.910Z,2.90
2023-07-07T03:21:31.915Z,3.60
2023-07-07T03:22:31.886Z,3.30
2023-07-07T03:23:31.878Z,3.40
2023-07-07T03:24:31.874Z,3.40
2023-07-07T03:25:31.859Z,3.50
2023-07-07T03:26:31.844Z,3.30
2023-07-07T03:27:31.817Z,3.60
2023-07-07T03:28:31.793Z,3.30
2023-07-07T03:29:31.808Z,3.20
2023-07-07T03:30:31.791Z,3.50
2023-07-07T03:31:31.984Z,3.50
2023-07-07T03:32:31.774Z,3.20
2023-07-07T03:33:31.746Z,3.20
2023-07-07T03:34:31.698Z,3.30
2023-07-07T03:35:31.707Z,3.50
2023-07-07T03:36:31.692Z,3.70
2023-07-07T03:37:31.682Z,3.80
2023-07-07T03:38:31.644Z,3.80
2023-07-07T03:39:31.664Z,4.00
2023-07-07T03:40:31.632Z,3.60
2023-07-07T03:41:31.638Z,3.70
2023-07-07T03:42:31.660Z,3.60
2023-07-07T03:43:31.597Z,3.80
2023-07-07T03:44:31.567Z,3.50
2023-07-07T03:45:31.578Z,3.90
2023-07-07T03:46:31.622Z,3.40
2023-07-07T03:47:31.590Z,3.50
2023-07-07T03:48:31.555Z,3.70
2023-07-07T03:49:31.517Z,4.10
2023-07-07T03:50:31.516Z,3.40
2023-07-07T03:51:31.506Z,3.70
2023-07-07T03:52:31.455Z,4.00
2023-07-07T03:53:31.516Z,3.60
2023-07-07T03:54:31.500Z,3.60
2023-07-07T03:55:31.438Z,3.50
2023-07-07T03:56:31.428Z,3.50
2023-07-07T03:57:31.433Z,3.50
2023-07-07T03:58:31.370Z,3.90
2023-07-07T03:59:31.378Z,3.90
2023-07-07T04:00:31.390Z,3.70
2023-07-07T04:01:31.368Z,3.80
2023-07-07T04:02:31.337Z,3.70
2023-07-07T04:03:31.569Z,3.50
2023-07-07T04:04:31.488Z,3.60
2023-07-07T04:05:31.316Z,3.60
2023-07-07T04:06:31.292Z,3.60
2023-07-07T04:07:31.295Z,3.20
2023-07-07T04:08:31.229Z,3.90
2023-07-07T04:09:31.257Z,3.30
2023-07-07T04:10:31.250Z,3.60
2023-07-07T04:11:31.218Z,4.00
2023-07-07T04:12:31.221Z,3.60
2023-07-07T04:13:31.302Z,4.10
2023-07-07T04:14:31.199Z,3.70
2023-07-07T04:15:31.165Z,3.80
2023-07-07T04:16:31.180Z,3.60
2023-07-07T04:17:31.149Z,3.80
2023-07-07T04:18:31.160Z,3.80
2023-07-07T04:19:31.126Z,4.10
2023-07-07T04:20:31.112Z,3.80
2023-07-07T04:21:31.108Z,3.50
2023-07-07T04:22:31.046Z,3.80
2023-07-07T04:23:31.057Z,3.40
2023-07-07T04:24:31.063Z,3.50
2023-07-07T04:25:31.059Z,3.60
2023-07-07T04:26:31.012Z,3.50
2023-07-07T04:27:31.023Z,3.70
2023-07-07T04:28:30.975Z,3.40
2023-07-07T04:29:30.994Z,3.50
2023-07-07T04:30:30.975Z,3.30
2023-07-07T04:31:30.965Z,3.50
2023-07-07T04:32:30.999Z,3.70
2023-07-07T04:33:30.931Z,3.30
2023-07-07T04:34:30.905Z,3.60
2023-07-07T04:35:30.925Z,3.70
2023-07-07T04:36:30.881Z,3.50
2023-07-07T04:37:30.872Z,4.20
2023-07-07T04:38:30.834Z,4.00
2023-07-07T04:39:30.856Z,3.40
2023-07-07T04:40:30.810Z,3.50
2023-07-07T04:41:30.826Z,3.70
2023-07-07T04:42:30.809Z,3.50
2023-07-07T04:43:30.790Z,3.40
2023-07-07T04:44:30.746Z,3.40
2023-07-07T04:45:30.761Z,3.70
2023-07-07T04:46:30.775Z,3.50
2023-07-07T04:47:30.769Z,3.70
2023-07-07T04:48:30.754Z,3.50
2023-07-07T04:49:30.720Z,3.80
2023-07-07T04:50:30.685Z,3.40
2023-07-07T04:51:30.677Z,4.00
2023-07-07T04:52:30.693Z,4.40
2023-07-07T04:53:31.786Z,4.50
2023-07-07T04:54:30.636Z,4.40
2023-07-07T04:55:30.638Z,4.90
2023-07-07T04:56:30.602Z,4.50
2023-07-07T04:57:30.615Z,4.30
2023-07-07T04:58:30.572Z,4.60
2023-07-07T04:59:30.586Z,4.10
2023-07-07T05:00:30.585Z,4.20
2023-07-07T05:01:30.628Z,4.30
2023-07-07T05:02:30.553Z,4.50
2023-07-07T05:03:30.575Z,4.80
2023-07-07T05:04:30.492Z,4.90
2023-07-07T05:05:30.500Z,4.50
2023-07-07T05:06:30.516Z,4.40
2023-07-07T05:07:30.501Z,4.30
2023-07-07T05:08:30.454Z,4.70
2023-07-07T05:09:30.450Z,4.30
2023-07-07T05:10:30.413Z,4.50
2023-07-07T05:11:30.423Z,4.80
2023-07-07T05:12:30.411Z,5.00
2023-07-07T05:13:30.461Z,5.20
2023-07-07T05:14:30.405Z,5.70
2023-07-07T05:15:30.392Z,5.30
2023-07-07T05:16:30.393Z,5.60
2023-07-07T05:17:30.395Z,5.50
2023-07-07T05:18:30.329Z,5.20
2023-07-07T05:19:30.340Z,5.90
2023-07-07T05:20:30.299Z,5.30
2023-07-07T05:21:30.313Z,5.40
2023-07-07T05:22:30.262Z,5.10
2023-07-07T05:23:30.304Z,5.40
2023-07-07T05:24:30.234Z,4.90
2023-07-07T05:25:30.269Z,5.10
2023-07-07T05:26:30.231Z,5.20
2023-07-07T05:27:30.215Z,4.80
2023-07-07T05:28:30.212Z,5.10
2023-07-07T05:29:30.206Z,4.60
2023-07-07T05:30:30.166Z,4.90
2023-07-07T05:31:30.343Z,5.20
2023-07-07T05:32:30.160Z,5.20
2023-07-07T05:33:30.308Z,5.00
2023-07-07T05:34:30.150Z,5.30
2023-07-07T05:35:30.110Z,6.60
2023-07-07T05:36:30.102Z,7.40
2023-07-07T05:37:30.097Z,5.80
2023-07-07T05:38:30.060Z,6.00
2023-07-07T05:39:30.100Z,6.40
2023-07-07T05:40:30.106Z,5.90
2023-07-07T05:41:30.053Z,5.10
2023-07-07T05:42:30.058Z,5.20
2023-07-07T05:43:30.019Z,5.00
2023-07-07T05:44:29.985Z,5.20
2023-07-07T05:45:30.019Z,5.70
2023-07-07T05:46:30.013Z,5.30
2023-07-07T05:47:30.026Z,5.50
2023-07-07T05:48:29.946Z,5.90
2023-07-07T05:49:29.965Z,5.60
2023-07-07T05:50:29.933Z,5.10
2023-07-07T05:51:29.919Z,5.90
2023-07-07T05:52:29.922Z,5.50
2023-07-07T05:53:29.912Z,3.20
2023-07-07T05:54:29.876Z,3.00
2023-07-07T05:55:29.881Z,3.40
2023-07-07T05:56:29.843Z,2.90
2023-07-07T05:57:29.863Z,2.70
2023-07-07T05:58:29.848Z,3.20
2023-07-07T05:59:29.828Z,3.20
2023-07-07T06:00:29.880Z,2.90
2023-07-07T06:01:29.881Z,2.90
2023-07-07T06:02:29.824Z,3.60
2023-07-07T06:03:29.808Z,2.70
2023-07-07T06:04:29.781Z,2.80
2023-07-07T06:05:29.758Z,2.90
2023-07-07T06:06:29.731Z,2.80
2023-07-07T06:07:29.727Z,3.70
2023-07-07T06:08:29.696Z,3.00
2023-07-07T06:09:29.710Z,3.10
2023-07-07T06:10:29.709Z,2.80
2023-07-07T06:11:29.688Z,3.30
2023-07-07T06:12:29.659Z,3.40
2023-07-07T06:13:29.828Z,3.40
2023-07-07T06:14:29.634Z,3.40
2023-07-07T06:15:29.649Z,3.00
2023-07-07T06:16:29.719Z,2.90
2023-07-07T06:17:29.656Z,2.90
2023-07-07T06:18:29.580Z,3.30
2023-07-07T06:19:29.622Z,2.90
2023-07-07T06:20:29.778Z,3.00
2023-07-07T06:21:29.567Z,2.90
2023-07-07T06:22:29.584Z,2.90
2023-07-07T06:23:29.550Z,2.90
2023-07-07T06:24:29.520Z,2.90
2023-07-07T06:25:29.520Z,3.10
2023-07-07T06:26:29.492Z,3.40
2023-07-07T06:27:29.504Z,3.30
2023-07-07T06:28:29.502Z,3.50
2023-07-07T06:29:29.475Z,3.30
2023-07-07T06:30:29.441Z,3.10
2023-07-07T06:31:29.493Z,3.00
2023-07-07T06:32:29.449Z,2.90
2023-07-07T06:33:29.446Z,3.10
2023-07-07T06:34:29.391Z,2.90
2023-07-07T06:35:29.421Z,3.10
2023-07-07T06:36:29.369Z,3.20
2023-07-07T06:37:29.420Z,3.00
2023-07-07T06:38:29.343Z,3.10
2023-07-07T06:39:29.424Z,2.90
2023-07-07T06:40:29.357Z,3.20
2023-07-07T06:41:29.352Z,2.80
2023-07-07T06:42:29.308Z,3.10
2023-07-07T06:43:29.383Z,3.20
2023-07-07T06:44:29.285Z,3.20
2023-07-07T06:45:29.336Z,3.10
2023-07-07T06:46:29.289Z,3.10
2023-07-07T06:47:29.366Z,3.10
2023-07-07T06:48:29.289Z,3.20
2023-07-07T06:49:29.271Z,3.50
2023-07-07T06:50:29.243Z,2.70
2023-07-07T06:51:29.198Z,2.90
2023-07-07T06:52:29.221Z,2.40
2023-07-07T06:53:29.185Z,2.80
2023-07-07T06:54:29.185Z,2.70
2023-07-07T06:55:29.206Z,2.60
2023-07-07T06:56:29.224Z,2.70
2023-07-07T06:57:29.148Z,2.50
2023-07-07T06:58:29.160Z,2.90
2023-07-07T06:59:29.090Z,2.70
2023-07-07T07:00:29.119Z,2.60
2023-07-07T07:01:29.160Z,2.50
2023-07-07T07:02:29.123Z,2.40
2023-07-07T07:03:29.082Z,2.80
2023-07-07T07:04:29.070Z,2.70
2023-07-07T07:05:29.055Z,2.70
2023-07-07T07:06:29.052Z,3.10
2023-07-07T07:07:29.025Z,2.90
2023-07-07T07:08:29.019Z,2.70
2023-07-07T07:09:28.986Z,2.80
2023-07-07T07:10:29.003Z,2.90
2023-07-07T07:11:29.009Z,2.70
2023-07-07T07:12:28.970Z,2.70
2023-07-07T07:13:29.020Z,2.90
2023-07-07T07:14:28.986Z,2.70
2023-07-07T07:15:28.943Z,3.20
2023-07-07T07:16:28.972Z,2.90
2023-07-07T07:17:28.933Z,2.80
2023-07-07T07:18:28.914Z,3.00
2023-07-07T07:19:28.922Z,3.00
2023-07-07T07:20:28.926Z,2.90
2023-07-07T07:21:28.845Z,3.20
2023-07-07T07:22:28.866Z,3.20
2023-07-07T07:23:28.839Z,2.70
2023-07-07T07:24:29.194Z,3.00
2023-07-07T07:25:28.898Z,2.80
2023-07-07T07:26:28.811Z,2.70
2023-07-07T07:27:28.868Z,2.80
2023-07-07T07:28:28.825Z,2.80
2023-07-07T07:29:28.756Z,2.70
2023-07-07T07:30:28.832Z,2.70
2023-07-07T07:31:28.842Z,2.60
2023-07-07T07:32:28.786Z,2.50
2023-07-07T07:33:28.721Z,2.60
2023-07-07T07:34:28.703Z,2.60
2023-07-07T07:35:28.703Z,2.80
2023-07-07T07:36:28.688Z,2.90
2023-07-07T07:37:28.699Z,2.60
2023-07-07T07:38:28.677Z,3.00
2023-07-07T07:39:28.647Z,2.80
2023-07-07T07:40:28.641Z,2.80
2023-07-07T07:41:28.594Z,2.70
2023-07-07T07:42:28.634Z,2.70
2023-07-07T07:43:28.582Z,2.70
2023-07-07T07:44:28.577Z,3.30
2023-07-07T07:45:28.540Z,3.20
2023-07-07T07:46:28.554Z,2.90
2023-07-07T07:47:28.616Z,2.60
2023-07-07T07:48:28.513Z,2.90
2023-07-07T07:49:28.508Z,2.60
2023-07-07T07:50:28.521Z,2.60
2023-07-07T07:51:36.043Z,2.60
2023-07-07T07:52:29.483Z,2.40
2023-07-07T07:53:28.456Z,2.70
2023-07-07T07:54:28.446Z,2.90
2023-07-07T07:55:28.435Z,2.60
2023-07-07T07:56:28.416Z,3.20
2023-07-07T07:57:28.387Z,2.70
2023-07-07T07:58:28.397Z,2.70
2023-07-07T07:59:28.392Z,3.00
2023-07-07T08:00:28.392Z,2.80
2023-07-07T08:01:28.518Z,3.20
2023-07-07T08:02:28.373Z,2.90
2023-07-07T08:03:28.349Z,3.20
2023-07-07T08:04:28.341Z,2.70
2023-07-07T08:05:28.301Z,3.10
2023-07-07T08:06:28.325Z,2.50
2023-07-07T08:07:28.276Z,2.80
2023-07-07T08:08:28.285Z,2.80
2023-07-07T08:09:28.236Z,2.90
2023-07-07T08:10:28.230Z,3.10
2023-07-07T08:11:28.222Z,2.90
2023-07-07T08:12:28.224Z,2.90
2023-07-07T08:13:39.965Z,3.10
2023-07-07T08:14:29.314Z,3.40
2023-07-07T08:15:28.147Z,3.30
2023-07-07T08:16:28.158Z,2.90
2023-07-07T08:17:28.270Z,3.20
2023-07-07T08:18:28.162Z,3.00
2023-07-07T08:19:28.131Z,3.10
2023-07-07T08:20:28.165Z,3.20
2023-07-07T08:21:28.079Z,2.70
2023-07-07T08:22:28.174Z,3.10
2023-07-07T08:23:28.032Z,3.10
2023-07-07T08:24:28.088Z,2.80
2023-07-07T08:25:28.016Z,3.00
2023-07-07T08:26:28.318Z,2.60
2023-07-07T08:28:27.997Z,3.10
2023-07-07T08:29:27.975Z,3.00
2023-07-07T08:30:28.020Z,2.90
2023-07-07T08:31:28.118Z,3.10
2023-07-07T08:32:27.960Z,2.90
2023-07-07T08:33:27.892Z,3.20
2023-07-07T08:34:30.033Z,3.20
2023-07-07T08:35:27.877Z,2.90
2023-07-07T08:36:27.904Z,2.90
2023-07-07T08:37:27.839Z,2.90
2023-07-07T08:38:27.860Z,3.00
2023-07-07T08:39:27.807Z,3.10
2023-07-07T08:40:27.828Z,3.20
2023-07-07T08:41:27.808Z,3.00
2023-07-07T08:42:27.830Z,3.20
2023-07-07T08:43:27.805Z,4.50
2023-07-07T08:44:27.804Z,3.10
2023-07-07T08:45:27.807Z,3.30
2023-07-07T08:46:27.839Z,4.10
2023-07-07T08:47:27.737Z,3.20
2023-07-07T08:48:27.754Z,3.30
2023-07-07T08:49:27.692Z,2.90
2023-07-07T08:50:30.103Z,2.90
2023-07-07T08:51:27.662Z,3.10
2023-07-07T08:52:27.691Z,2.90
2023-07-07T08:53:27.649Z,3.00
2023-07-07T08:54:27.759Z,3.40
2023-07-07T08:55:27.612Z,3.20
2023-07-07T08:56:27.615Z,3.30
2023-07-07T08:57:27.573Z,3.20
2023-07-07T08:58:29.642Z,2.90
2023-07-07T08:59:27.556Z,2.80
2023-07-07T09:00:27.595Z,2.90
2023-07-07T09:01:27.571Z,3.20
2023-07-07T09:02:27.581Z,3.60
2023-07-07T09:03:27.487Z,3.20
2023-07-07T09:04:27.538Z,3.40
2023-07-07T09:05:28.500Z,3.40
2023-07-07T09:06:27.508Z,3.20
2023-07-07T09:07:27.436Z,3.70
2023-07-07T09:08:32.578Z,3.50
2023-07-07T09:09:28.402Z,3.50
2023-07-07T09:10:27.436Z,3.80
2023-07-07T09:11:27.402Z,3.40
2023-07-07T09:12:27.416Z,3.50
2023-07-07T09:13:27.399Z,3.20
2023-07-07T09:14:27.389Z,3.70
2023-07-07T09:15:27.375Z,3.40
2023-07-07T09:16:27.407Z,3.60
2023-07-07T09:17:27.344Z,3.70
2023-07-07T09:18:27.347Z,3.70
2023-07-07T09:19:27.284Z,3.30
2023-07-07T09:20:27.327Z,3.80
2023-07-07T09:21:27.273Z,3.40
2023-07-07T09:22:27.261Z,3.30
2023-07-07T09:23:27.234Z,3.70
2023-07-07T09:24:27.352Z,3.50
2023-07-07T09:25:34.312Z,3.30
2023-07-07T09:26:28.217Z,3.40
2023-07-07T09:27:27.160Z,3.80
2023-07-07T09:28:27.177Z,3.60
2023-07-07T09:29:27.195Z,3.50
2023-07-07T09:30:27.576Z,4.00
2023-07-07T09:31:27.182Z,7.40
2023-07-07T09:32:27.159Z,3.90
2023-07-07T09:33:27.091Z,5.40
2023-07-07T09:34:27.161Z,6.40
2023-07-07T09:35:27.074Z,4.00
2023-07-07T09:36:27.103Z,3.50
2023-07-07T09:37:27.057Z,3.50
2023-07-07T09:38:27.050Z,3.60
2023-07-07T09:39:27.023Z,5.30
2023-07-07T09:40:27.049Z,3.90
2023-07-07T09:41:26.992Z,3.90
2023-07-07T09:42:27.039Z,5.20
2023-07-07T09:43:27.251Z,3.70
2023-07-07T09:44:26.990Z,3.60
2023-07-07T09:45:26.943Z,3.80
2023-07-07T09:46:26.999Z,3.30
2023-07-07T09:47:26.918Z,3.40
2023-07-07T09:48:26.999Z,4.00
2023-07-07T09:49:26.886Z,4.00
2023-07-07T09:50:26.912Z,3.70
2023-07-07T09:51:26.871Z,4.70
2023-07-07T09:52:26.901Z,6.60
2023-07-07T09:53:30.496Z,5.00
2023-07-07T09:54:27.878Z,4.10
2023-07-07T09:55:26.832Z,4.00
2023-07-07T09:56:26.853Z,4.00
2023-07-07T09:57:26.793Z,4.40
2023-07-07T09:58:26.812Z,4.00
2023-07-07T09:59:26.768Z,4.70
2023-07-07T10:00:43.227Z,4.70
2023-07-07T10:01:27.802Z,4.40
2023-07-07T10:02:26.767Z,4.40
2023-07-07T10:03:26.793Z,5.00
2023-07-07T10:04:26.776Z,4.60
2023-07-07T10:05:26.695Z,4.40
2023-07-07T10:06:26.720Z,5.00
2023-07-07T10:07:26.692Z,5.50
2023-07-07T10:08:26.680Z,4.40
2023-07-07T10:09:26.640Z,4.40
2023-07-07T10:10:26.661Z,4.40
2023-07-07T10:12:31.987Z,4.60
2023-07-07T10:13:27.608Z,4.70
2023-07-07T10:14:26.590Z,4.70
2023-07-07T10:15:26.553Z,4.80
2023-07-07T10:16:26.633Z,4.40
2023-07-07T10:17:26.568Z,4.70
2023-07-07T10:18:26.870Z,4.40
2023-07-07T10:19:26.494Z,5.90
2023-07-07T10:20:26.517Z,3.70
2023-07-07T10:21:26.458Z,4.30
2023-07-07T10:22:26.481Z,5.10
2023-07-07T10:23:26.476Z,4.50
2023-07-07T10:24:26.492Z,4.90
2023-07-07T10:25:26.436Z,4.80
2023-07-07T10:26:26.449Z,5.00
2023-07-07T10:27:26.410Z,5.40
2023-07-07T10:28:26.405Z,3.80
2023-07-07T10:29:26.422Z,3.30
2023-07-07T10:30:26.435Z,4.90
2023-07-07T10:31:26.353Z,4.80
2023-07-07T10:32:26.476Z,4.50
2023-07-07T10:33:26.365Z,4.60
2023-07-07T10:34:26.340Z,4.60
2023-07-07T10:35:26.376Z,4.80
2023-07-07T10:36:26.337Z,4.60
2023-07-07T10:37:26.278Z,4.50
2023-07-07T10:38:27.346Z,5.00
2023-07-07T10:39:26.282Z,5.20
2023-07-07T10:40:26.328Z,5.40
2023-07-07T10:41:26.263Z,5.50
2023-07-07T10:42:26.347Z,5.00
2023-07-07T10:43:26.184Z,5.00
2023-07-07T10:44:26.239Z,5.20
2023-07-07T10:45:26.183Z,7.20
2023-07-07T10:46:26.191Z,4.80
2023-07-07T10:47:26.232Z,5.20
2023-07-07T10:48:26.184Z,5.20
2023-07-07T10:49:26.140Z,4.90
2023-07-07T10:50:26.168Z,5.00
2023-07-07T10:51:26.142Z,5.00
2023-07-07T10:53:27.148Z,5.10
2023-07-07T10:54:27.472Z,6.40
2023-07-07T10:55:26.018Z,5.50
2023-07-07T10:56:26.024Z,5.30
2023-07-07T10:57:26.147Z,5.70
2023-07-07T10:58:25.992Z,6.40
2023-07-07T10:59:26.014Z,5.90
2023-07-07T11:00:31.465Z,6.20
2023-07-07T11:01:27.052Z,5.70
2023-07-07T11:02:26.041Z,5.80
2023-07-07T11:03:27.238Z,6.10
2023-07-07T11:04:25.933Z,6.30
2023-07-07T11:05:27.166Z,6.90
2023-07-07T11:06:26.214Z,6.70
2023-07-07T11:07:25.922Z,6.20
2023-07-07T11:08:25.853Z,6.10
2023-07-07T11:09:25.984Z,7.00
2023-07-07T11:10:26.362Z,7.50
2023-07-07T11:11:25.918Z,6.70
2023-07-07T11:12:25.923Z,6.20
2023-07-07T11:13:25.846Z,6.30
2023-07-07T11:14:25.851Z,5.90
2023-07-07T11:15:25.806Z,7.90
2023-07-07T11:16:25.864Z,8.50
2023-07-07T11:17:25.894Z,6.90
2023-07-07T11:18:25.783Z,7.10
2023-07-07T11:19:25.812Z,6.30
2023-07-07T11:20:25.750Z,6.60
2023-07-07T11:21:26.701Z,5.80
2023-07-07T11:22:25.720Z,6.20
2023-07-07T11:23:26.503Z,6.10
2023-07-07T11:24:48.557Z,6.30
2023-07-07T11:25:26.754Z,6.40
2023-07-07T11:26:25.641Z,5.80
2023-07-07T11:27:25.681Z,6.30
2023-07-07T11:28:25.656Z,6.20
2023-07-07T11:29:25.761Z,6.20
2023-07-07T11:30:25.683Z,6.30
2023-07-07T11:31:25.696Z,6.60
2023-07-07T11:32:25.700Z,6.80
2023-07-07T11:33:25.642Z,6.90
2023-07-07T11:34:25.538Z,7.30
2023-07-07T11:35:25.584Z,6.30
2023-07-07T11:36:25.505Z,6.80
2023-07-07T11:37:25.520Z,6.50
2023-07-07T11:38:25.535Z,6.60
2023-07-07T11:39:25.528Z,6.40
2023-07-07T11:40:25.465Z,6.80
2023-07-07T11:41:25.510Z,7.70
2023-07-07T11:42:25.461Z,6.80
2023-07-07T11:43:25.507Z,6.70
2023-07-07T11:44:25.441Z,7.10
2023-07-07T11:45:25.539Z,7.20
2023-07-07T11:46:25.416Z,6.80
2023-07-07T11:47:25.501Z,6.90
2023-07-07T11:48:25.368Z,7.80
2023-07-07T11:49:25.402Z,7.30
2023-07-07T11:50:25.398Z,7.10
2023-07-07T11:51:25.420Z,6.80
2023-07-07T11:52:25.404Z,7.00
2023-07-07T11:53:25.416Z,6.80
2023-07-07T11:54:25.342Z,6.60
2023-07-07T11:55:25.347Z,6.90
2023-07-07T11:56:25.250Z,7.20
2023-07-07T11:57:25.267Z,7.30
2023-07-07T11:58:25.229Z,7.20
2023-07-07T11:59:25.383Z,6.70
2023-07-07T12:00:25.241Z,6.90
2023-07-07T12:01:25.227Z,6.70
2023-07-07T12:02:25.249Z,6.60
2023-07-07T12:03:25.454Z,10.00
2023-07-07T12:04:25.399Z,9.10
2023-07-07T12:05:25.333Z,7.00
2023-07-07T12:06:25.131Z,7.10
2023-07-07T12:07:25.137Z,9.50
2023-07-07T12:08:25.098Z,7.00
2023-07-07T12:09:25.127Z,7.40
2023-07-07T12:10:25.114Z,6.90
2023-07-07T12:11:25.111Z,6.70
2023-07-07T12:12:25.074Z,6.40
2023-07-07T12:13:25.220Z,5.60
2023-07-07T12:14:25.025Z,6.60
2023-07-07T12:15:25.117Z,7.00
2023-07-07T12:16:25.056Z,7.20
2023-07-07T12:17:25.106Z,7.40
2023-07-07T12:18:24.983Z,7.10
2023-07-07T12:19:25.041Z,7.00
2023-07-07T12:20:24.946Z,7.10
2023-07-07T12:21:24.983Z,7.30
2023-07-07T12:22:24.918Z,7.10
2023-07-07T12:23:24.968Z,7.40
2023-07-07T12:24:24.944Z,7.40
2023-07-07T12:25:24.921Z,7.30
2023-07-07T12:26:24.915Z,6.90
2023-07-07T12:27:24.876Z,7.20
2023-07-07T12:28:24.853Z,7.60
2023-07-07T12:29:24.886Z,7.30
2023-07-07T12:30:24.829Z,7.80
2023-07-07T12:31:24.850Z,7.10
2023-07-07T12:32:25.283Z,7.50
2023-07-07T12:33:24.799Z,7.60
2023-07-07T12:34:24.758Z,7.00
2023-07-07T12:35:24.797Z,7.10
2023-07-07T12:36:24.743Z,7.70
2023-07-07T12:37:24.760Z,7.50
2023-07-07T12:38:24.720Z,7.80
2023-07-07T12:39:25.414Z,7.40
2023-07-07T12:40:24.676Z,7.10
2023-07-07T12:41:24.724Z,7.50
2023-07-07T12:42:24.694Z,7.10
2023-07-07T12:43:24.669Z,7.50
2023-07-07T12:44:24.664Z,7.40
2023-07-07T12:45:24.685Z,8.10
2023-07-07T12:46:24.725Z,7.80
2023-07-07T12:47:24.682Z,7.50
2023-07-07T12:48:24.574Z,8.00
2023-07-07T12:49:24.590Z,6.70
2023-07-07T12:50:24.570Z,6.90
2023-07-07T12:51:24.587Z,8.00
2023-07-07T12:52:24.540Z,5.10
2023-07-07T12:53:24.557Z,8.10
2023-07-07T12:54:24.529Z,7.40
2023-07-07T12:55:24.521Z,7.30
2023-07-07T12:56:24.461Z,7.00
2023-07-07T12:57:24.501Z,7.10
2023-07-07T12:58:24.450Z,6.90
2023-07-07T12:59:24.482Z,6.90
2023-07-07T13:00:24.419Z,6.70
2023-07-07T13:01:24.523Z,7.70
2023-07-07T13:02:24.514Z,7.70
2023-07-07T13:03:24.549Z,7.60
2023-07-07T13:04:24.380Z,7.50
2023-07-07T13:05:24.413Z,7.30
2023-07-07T13:06:24.350Z,7.40
2023-07-07T13:07:24.346Z,6.90
2023-07-07T13:08:24.306Z,6.20
2023-07-07T13:09:24.370Z,6.70
2023-07-07T13:10:24.299Z,7.40
2023-07-07T13:11:24.333Z,7.30
2023-07-07T13:12:24.260Z,7.10
2023-07-07T13:13:24.303Z,7.00
2023-07-07T13:14:24.227Z,7.70
2023-07-07T13:15:24.232Z,7.30
2023-07-07T13:16:24.229Z,7.20
2023-07-07T13:17:24.281Z,7.90
2023-07-07T13:18:24.160Z,7.00
2023-07-07T13:19:24.211Z,7.50
2023-07-07T13:20:24.153Z,7.60
2023-07-07T13:21:24.182Z,7.30